Time;durP1;ratioP1;P1;durP2;ratioP2;P2;SDS_P1;SDS_P2;PMS_P1;PMS_P2;Temp;Humidity;BMP_temperature;BMP_pressure;BME280_temperature;BME280_humidity;BME280_pressure;Samples;Min_cycle;Max_cycle;Signal;HPM_P1;HPM_P2
2023/05/06 00:01:32;;;;;;;9.65;7.30;;;12.20;99.90;;;;;;5049507;28;20410;-55
2023/05/06 00:03:57;;;;;;;6.00;5.50;;;12.20;99.90;;;;;;5050895;28;20040;-55
2023/05/06 00:06:23;;;;;;;7.13;6.30;;;12.20;99.90;;;;;;5035288;28;20041;-56
2023/05/06 00:08:49;;;;;;;6.47;5.88;;;12.20;99.90;;;;;;5030111;28;20272;-56
2023/05/06 00:11:14;;;;;;;8.43;5.93;;;12.20;99.90;;;;;;5042942;28;20040;-56
2023/05/06 00:13:41;;;;;;;7.95;6.65;;;12.20;99.90;;;;;;5042929;28;20029;-53
2023/05/06 00:16:06;;;;;;;6.63;5.93;;;12.20;99.90;;;;;;5041530;28;20036;-56
2023/05/06 00:18:32;;;;;;;7.63;6.93;;;12.20;99.90;;;;;;5049741;28;20525;-56
2023/05/06 00:20:58;;;;;;;7.20;6.03;;;12.20;99.90;;;;;;5048162;28;20384;-55
2023/05/06 00:23:23;;;;;;;8.80;7.90;;;12.20;99.90;;;;;;5050313;28;20037;-54
2023/05/06 00:25:49;;;;;;;8.30;6.20;;;12.20;99.90;;;;;;5041904;28;20391;-53
2023/05/06 00:28:14;;;;;;;8.17;6.27;;;12.20;99.90;;;;;;5027409;28;20287;-54
2023/05/06 00:30:40;;;;;;;3.73;3.53;;;12.20;99.90;;;;;;5035877;28;20275;-54
2023/05/06 00:33:05;;;;;;;3.60;3.40;;;12.10;99.90;;;;;;5050100;28;20354;-54
2023/05/06 00:35:31;;;;;;;4.20;3.90;;;12.10;99.90;;;;;;5045177;28;20891;-56
2023/05/06 00:38:06;;;;;;;32.03;4.20;;;12.00;99.90;;;;;;5029180;28;20037;-55
2023/05/06 00:40:31;;;;;;;4.88;4.55;;;11.90;99.90;;;;;;5033666;28;20045;-53
2023/05/06 00:42:57;;;;;;;3.00;1.80;;;11.90;99.90;;;;;;5048052;28;20053;-54
2023/05/06 00:45:23;;;;;;;3.70;3.40;;;11.80;99.90;;;;;;5046476;28;20867;-55
2023/05/06 00:47:50;;;;;;;3.55;3.25;;;11.80;99.90;;;;;;5049021;28;20091;-53
2023/05/06 00:50:16;;;;;;;4.32;3.92;;;11.70;99.90;;;;;;5048850;28;20052;-54
2023/05/06 00:52:42;;;;;;;15.70;6.72;;;11.70;99.90;;;;;;5030094;28;20048;-56
2023/05/06 00:55:08;;;;;;;5.22;4.72;;;11.60;99.90;;;;;;5029616;28;20437;-55
2023/05/06 00:57:33;;;;;;;3.38;2.72;;;11.60;99.90;;;;;;5047032;28;20044;-56
2023/05/06 00:59:59;;;;;;;3.65;2.95;;;11.60;99.90;;;;;;5047549;28;20448;-53
2023/05/06 01:02:25;;;;;;;3.38;2.85;;;11.50;99.90;;;;;;5031072;28;20120;-55
2023/05/06 01:04:50;;;;;;;2.53;2.33;;;11.50;99.90;;;;;;5028507;28;20124;-56
2023/05/06 01:07:26;;;;;;;2.47;2.28;;;11.40;99.90;;;;;;5032453;28;20034;-55
2023/05/06 01:10:09;;;;;;;3.10;2.85;;;11.40;99.90;;;;;;5030491;28;20499;-55
2023/05/06 01:13:13;;;;;;;3.58;2.40;;;11.40;99.90;;;;;;5032833;28;20038;-55
2023/05/06 01:15:45;;;;;;;58.17;4.25;;;11.30;99.90;;;;;;5038341;28;20518;-54
2023/05/06 01:18:14;;;;;;;2.70;2.10;;;11.20;99.90;;;;;;5026660;28;20237;-55
2023/05/06 01:20:45;;;;;;;2.33;1.83;;;11.20;99.90;;;;;;5030888;28;20487;-55
2023/05/06 01:23:14;;;;;;;4.03;2.80;;;11.20;99.90;;;;;;5033713;28;20045;-56
2023/05/06 01:25:40;;;;;;;3.50;3.17;;;11.20;99.90;;;;;;5028967;28;20041;-54
2023/05/06 01:28:09;;;;;;;15.27;6.07;;;11.20;99.90;;;;;;5033887;28;20116;-54
2023/05/06 01:30:56;;;;;;;7.90;7.10;;;11.20;99.90;;;;;;5029843;28;20116;-54
2023/05/06 01:33:49;;;;;;;6.53;5.85;;;11.20;99.90;;;;;;5027923;28;20131;-53
2023/05/06 01:36:35;;;;;;;7.38;6.35;;;11.20;99.90;;;;;;5037619;28;20394;-56
2023/05/06 01:39:19;;;;;;;4.88;4.38;;;11.20;99.90;;;;;;5051816;28;20056;-55
2023/05/06 01:41:47;;;;;;;9.57;5.95;;;11.20;99.90;;;;;;5035424;28;20084;-56
2023/05/06 01:44:14;;;;;;;7.40;6.70;;;11.20;99.90;;;;;;5033284;28;20087;-55
2023/05/06 01:46:41;;;;;;;4.45;4.00;;;11.30;99.90;;;;;;5049831;28;20068;-52
2023/05/06 01:49:10;;;;;;;6.55;4.30;;;11.20;99.90;;;;;;5050779;28;20041;-56
2023/05/06 01:51:36;;;;;;;7.40;4.82;;;11.20;99.90;;;;;;5037575;28;20033;-55
2023/05/06 01:54:02;;;;;;;7.18;6.47;;;11.10;99.90;;;;;;5033392;28;20163;-56
2023/05/06 01:56:29;;;;;;;7.85;7.05;;;11.10;99.90;;;;;;5046674;28;20115;-56
2023/05/06 01:58:56;;;;;;;7.20;6.20;;;11.10;99.90;;;;;;5051698;28;20059;-56
2023/05/06 02:01:22;;;;;;;7.30;6.05;;;11.00;99.90;;;;;;5038447;28;20072;-53
2023/05/06 02:03:47;;;;;;;2.45;2.25;;;10.90;99.90;;;;;;5032549;28;20069;-56
2023/05/06 02:06:13;;;;;;;39.37;4.20;;;10.90;99.90;;;;;;5034190;28;20322;-55
2023/05/06 02:08:42;;;;;;;25.48;7.97;;;10.90;99.90;;;;;;5027373;28;20033;-54
2023/05/06 02:11:08;;;;;;;27.17;12.77;;;10.80;99.90;;;;;;5034680;28;20561;-55
2023/05/06 02:13:33;;;;;;;18.30;14.18;;;10.80;99.90;;;;;;5033397;28;20111;-56
2023/05/06 02:15:59;;;;;;;12.95;11.65;;;10.80;99.90;;;;;;5039898;28;20033;-54
2023/05/06 02:18:24;;;;;;;18.20;11.55;;;10.70;99.90;;;;;;5037605;28;20091;-53
2023/05/06 02:20:50;;;;;;;86.40;12.83;;;10.70;99.90;;;;;;5032817;28;20041;-55
2023/05/06 02:23:16;;;;;;;80.57;13.13;;;10.70;99.90;;;;;;5032413;28;20371;-53
2023/05/06 02:25:42;;;;;;;13.02;9.93;;;10.60;99.90;;;;;;5036032;28;20037;-55
2023/05/06 02:28:07;;;;;;;10.25;8.40;;;10.60;99.90;;;;;;5051031;28;20043;-56
2023/05/06 02:30:33;;;;;;;63.03;8.93;;;10.50;99.90;;;;;;5049796;28;20032;-55
2023/05/06 02:32:59;;;;;;;37.13;7.95;;;10.50;99.90;;;;;;5031340;28;20231;-55
2023/05/06 02:35:24;;;;;;;38.33;7.37;;;10.40;99.90;;;;;;5032469;28;20048;-56
2023/05/06 02:37:50;;;;;;;38.33;7.97;;;10.30;99.90;;;;;;5034858;28;20288;-56
2023/05/06 02:40:16;;;;;;;48.27;9.63;;;10.30;99.90;;;;;;5030622;28;20362;-55
2023/05/06 02:42:41;;;;;;;25.23;7.88;;;10.20;99.90;;;;;;5047669;28;20049;-54
2023/05/06 02:45:07;;;;;;;56.03;7.23;;;10.20;99.90;;;;;;5031476;28;20033;-52
2023/05/06 02:47:33;;;;;;;115.65;10.77;;;10.10;99.90;;;;;;5047498;28;20284;-56
2023/05/06 02:49:58;;;;;;;34.90;7.47;;;10.10;99.90;;;;;;5032883;28;20041;-56
2023/05/06 02:52:24;;;;;;;61.33;9.67;;;10.00;99.90;;;;;;5037310;28;20280;-55
2023/05/06 02:54:50;;;;;;;126.53;9.70;;;10.00;99.90;;;;;;5032174;28;20119;-54
2023/05/06 02:57:16;;;;;;;74.13;7.75;;;9.90;99.90;;;;;;5032053;28;20045;-51
2023/05/06 02:59:41;;;;;;;40.17;6.67;;;9.90;99.90;;;;;;5031195;28;20151;-55
2023/05/06 03:02:07;;;;;;;122.77;10.73;;;9.80;99.90;;;;;;5042912;28;20279;-56
2023/05/06 03:04:32;;;;;;;77.53;9.83;;;9.80;99.90;;;;;;5051109;28;20053;-56
2023/05/06 03:06:58;;;;;;;161.95;10.30;;;9.80;99.90;;;;;;5041177;28;20444;-53
2023/05/06 03:09:23;;;;;;;5.40;4.80;;;9.80;99.90;;;;;;5025858;28;20651;-53
2023/05/06 03:11:49;;;;;;;6.45;5.00;;;9.70;99.90;;;;;;5038652;28;20032;-54
2023/05/06 03:14:15;;;;;;;5.88;4.50;;;9.70;99.90;;;;;;5052297;28;20136;-55
2023/05/06 03:16:40;;;;;;;9.67;5.77;;;9.70;99.90;;;;;;5049846;28;20124;-55
2023/05/06 03:19:06;;;;;;;10.10;6.57;;;9.70;99.90;;;;;;5050774;28;20037;-54
2023/05/06 03:21:32;;;;;;;6.90;6.30;;;9.70;99.90;;;;;;5047067;28;20295;-56
2023/05/06 03:23:58;;;;;;;15.23;5.95;;;9.70;99.90;;;;;;5031397;28;20095;-56
2023/05/06 03:26:23;;;;;;;34.63;5.68;;;9.80;99.90;;;;;;5031776;28;20055;-54
2023/05/06 03:28:49;;;;;;;7.20;5.95;;;9.80;99.90;;;;;;5050657;28;20120;-56
2023/05/06 03:31:15;;;;;;;12.33;5.63;;;9.70;99.90;;;;;;5050609;28;20139;-53
2023/05/06 03:33:40;;;;;;;5.50;5.10;;;9.70;99.90;;;;;;5050301;28;20836;-55
2023/05/06 03:36:06;;;;;;;7.65;6.00;;;9.70;99.90;;;;;;5051061;28;20045;-54
2023/05/06 03:38:32;;;;;;;9.40;7.32;;;9.60;99.90;;;;;;5031386;28;20073;-55
2023/05/06 03:40:57;;;;;;;6.97;6.27;;;9.60;99.90;;;;;;5029070;28;20056;-55
2023/05/06 03:43:23;;;;;;;9.02;6.68;;;9.70;99.90;;;;;;5032459;28;20124;-54
2023/05/06 03:45:48;;;;;;;7.17;4.57;;;9.70;99.90;;;;;;5031020;28;20041;-56
2023/05/06 03:48:14;;;;;;;4.17;3.53;;;9.70;99.90;;;;;;5029122;28;20349;-56
2023/05/06 03:50:40;;;;;;;5.25;3.20;;;9.70;99.90;;;;;;5030247;28;20032;-56
2023/05/06 03:53:05;;;;;;;4.20;3.70;;;9.70;99.90;;;;;;5031154;28;20033;-55
2023/05/06 03:55:31;;;;;;;19.02;4.55;;;9.70;99.90;;;;;;5030792;28;20038;-55
2023/05/06 03:57:57;;;;;;;60.07;5.13;;;9.70;99.90;;;;;;5040806;28;20473;-55
2023/05/06 04:00:22;;;;;;;105.83;6.10;;;9.60;99.90;;;;;;5050639;28;20051;-54
2023/05/06 04:02:48;;;;;;;22.13;4.80;;;9.60;99.90;;;;;;5041896;28;20773;-57
2023/05/06 04:05:14;;;;;;;12.37;4.73;;;9.60;99.90;;;;;;5029825;28;20115;-53
2023/05/06 04:07:39;;;;;;;5.03;4.32;;;9.50;99.90;;;;;;5035865;28;20735;-56
2023/05/06 04:10:06;;;;;;;16.00;4.50;;;9.50;99.90;;;;;;5032722;28;20038;-55
2023/05/06 04:12:31;;;;;;;;;;;9.50;99.90;;;;;;5033060;28;20037;-55
2023/05/06 04:14:57;;;;;;;6.90;4.35;;;9.50;99.90;;;;;;5031599;28;20302;-54
2023/05/06 04:17:22;;;;;;;9.20;6.17;;;9.50;99.90;;;;;;5032066;28;20110;-55
2023/05/06 04:19:48;;;;;;;75.60;9.93;;;9.50;99.90;;;;;;5050094;28;20693;-55
2023/05/06 04:22:13;;;;;;;107.97;12.32;;;9.60;99.90;;;;;;5040121;28;20203;-54
2023/05/06 04:24:40;;;;;;;175.03;11.50;;;9.60;99.90;;;;;;5030443;28;20525;-55
2023/05/06 04:27:06;;;;;;;120.20;10.82;;;9.60;99.90;;;;;;5030756;28;20044;-55
2023/05/06 04:29:31;;;;;;;178.60;11.70;;;9.70;99.90;;;;;;5047860;28;20045;-56
2023/05/06 04:31:57;;;;;;;102.93;9.30;;;9.70;99.90;;;;;;5050786;28;20513;-54
2023/05/06 04:34:23;;;;;;;57.03;7.13;;;9.60;99.90;;;;;;5047240;28;20283;-55
2023/05/06 04:36:49;;;;;;;;;;;9.70;99.90;;;;;;5050362;28;20077;-54
2023/05/06 04:39:16;;;;;;;53.33;6.35;;;9.60;99.90;;;;;;5033451;28;19917;-52
2023/05/06 04:41:43;;;;;;;45.20;6.07;;;9.60;99.90;;;;;;5028701;28;20061;-52
2023/05/06 04:44:08;;;;;;;;;;;9.60;99.90;;;;;;5032387;28;20037;-55
2023/05/06 04:46:34;;;;;;;36.50;6.30;;;9.60;99.90;;;;;;5029425;28;19979;-53
2023/05/06 04:49:00;;;;;;;14.63;5.85;;;9.60;99.90;;;;;;5040448;28;20485;-51
2023/05/06 04:51:26;;;;;;;24.60;5.38;;;9.70;99.90;;;;;;5048751;28;20147;-53
2023/05/06 04:53:52;;;;;;;5.93;5.38;;;9.70;99.90;;;;;;5042343;28;20038;-56
2023/05/06 04:56:17;;;;;;;33.37;7.00;;;9.80;99.90;;;;;;5029257;28;20052;-56
2023/05/06 04:58:43;;;;;;;8.35;6.53;;;9.80;99.90;;;;;;5036089;28;20344;-53
2023/05/06 05:01:10;;;;;;;29.55;8.15;;;9.80;99.90;;;;;;5049212;28;20517;-53
2023/05/06 05:03:35;;;;;;;54.13;8.05;;;9.80;99.90;;;;;;5040527;28;20055;-55
2023/05/06 05:06:01;;;;;;;35.50;8.60;;;9.80;99.90;;;;;;5047533;28;20044;-55
2023/05/06 05:08:27;;;;;;;10.38;8.68;;;9.90;99.90;;;;;;5040113;28;20037;-55
2023/05/06 05:10:52;;;;;;;23.20;10.77;;;9.90;99.90;;;;;;5039556;28;20037;-54
2023/05/06 05:13:18;;;;;;;65.97;12.25;;;9.90;99.90;;;;;;5043587;28;20045;-54
2023/05/06 05:15:44;;;;;;;56.45;13.27;;;10.00;99.90;;;;;;5049726;28;20045;-53
2023/05/06 05:18:09;;;;;;;23.40;12.07;;;10.00;99.90;;;;;;5029198;28;20049;-54
2023/05/06 05:20:35;;;;;;;17.85;12.95;;;10.00;99.90;;;;;;5010386;28;20033;-56
2023/05/06 05:23:01;;;;;;;16.60;12.60;;;10.10;99.90;;;;;;5013533;28;20121;-53
2023/05/06 05:25:26;;;;;;;32.40;14.20;;;10.10;99.90;;;;;;5048098;28;20044;-54
2023/05/06 05:27:52;;;;;;;53.73;13.50;;;10.20;99.90;;;;;;5048415;28;20861;-55
2023/05/06 05:30:18;;;;;;;43.83;15.05;;;10.20;99.90;;;;;;5032590;28;20351;-56
2023/05/06 05:32:43;;;;;;;44.17;15.40;;;10.30;99.90;;;;;;5029171;28;20121;-56
2023/05/06 05:35:09;;;;;;;40.17;14.70;;;10.30;99.90;;;;;;5037611;28;20398;-55
2023/05/06 05:37:35;;;;;;;69.38;16.42;;;10.40;99.90;;;;;;5027845;28;20041;-54
2023/05/06 05:40:01;;;;;;;134.05;19.08;;;10.40;99.90;;;;;;5041022;28;20048;-54
2023/05/06 05:42:29;;;;;;;94.28;17.98;;;10.40;99.90;;;;;;5048260;28;20072;-56
2023/05/06 05:44:55;;;;;;;38.22;16.27;;;10.50;99.90;;;;;;5047079;28;20081;-55
2023/05/06 05:47:20;;;;;;;85.00;16.70;;;10.60;99.90;;;;;;5048382;28;20450;-55
2023/05/06 05:49:46;;;;;;;28.88;15.93;;;10.60;99.90;;;;;;5038687;28;20643;-55
2023/05/06 05:52:12;;;;;;;44.33;15.60;;;10.70;99.90;;;;;;5029685;28;20406;-52
2023/05/06 05:54:37;;;;;;;79.95;18.08;;;10.70;99.90;;;;;;5030559;28;20045;-54
2023/05/06 05:57:03;;;;;;;36.53;18.07;;;10.70;99.90;;;;;;5028384;28;20033;-54
2023/05/06 05:59:28;;;;;;;25.27;18.65;;;10.70;99.90;;;;;;5027911;28;20061;-56
2023/05/06 06:01:54;;;;;;;25.98;19.40;;;10.80;99.90;;;;;;5027602;28;20038;-54
2023/05/06 06:04:20;;;;;;;24.50;18.10;;;10.90;99.90;;;;;;5032191;28;20037;-55
2023/05/06 06:06:45;;;;;;;27.95;19.27;;;10.90;99.90;;;;;;5046913;28;20569;-55
2023/05/06 06:09:11;;;;;;;28.52;20.77;;;11.00;99.90;;;;;;5042557;28;20315;-54
2023/05/06 06:11:37;;;;;;;33.53;21.20;;;11.10;99.90;;;;;;5029147;28;20041;-55
2023/05/06 06:14:02;;;;;;;18.23;13.10;;;11.20;99.90;;;;;;5030539;28;20073;-56
2023/05/06 06:16:28;;;;;;;55.27;19.03;;;11.20;99.90;;;;;;5028825;28;20511;-56
2023/05/06 06:18:54;;;;;;;28.60;17.73;;;11.30;99.90;;;;;;5028116;28;20037;-55
2023/05/06 06:21:20;;;;;;;27.27;20.13;;;11.50;99.90;;;;;;5047100;28;20040;-56
2023/05/06 06:23:46;;;;;;;29.50;19.55;;;11.60;99.90;;;;;;5049075;28;20124;-56
2023/05/06 06:26:11;;;;;;;32.35;21.70;;;11.80;99.90;;;;;;5047932;28;20041;-57
2023/05/06 06:28:37;;;;;;;39.13;26.98;;;11.90;99.90;;;;;;5031827;28;20491;-56
2023/05/06 06:31:02;;;;;;;37.05;25.25;;;12.00;99.90;;;;;;5031725;28;20544;-55
2023/05/06 06:33:28;;;;;;;41.95;27.38;;;12.10;99.90;;;;;;5032561;28;20096;-53
2023/05/06 06:35:54;;;;;;;49.83;30.20;;;12.20;99.90;;;;;;5033551;28;20507;-53
2023/05/06 06:38:19;;;;;;;45.85;27.65;;;12.40;99.90;;;;;;5031128;28;20071;-54
2023/05/06 06:40:45;;;;;;;47.28;29.77;;;12.40;99.90;;;;;;5033686;28;20045;-56
2023/05/06 06:43:10;;;;;;;50.78;30.23;;;12.50;99.90;;;;;;5032058;28;20045;-55
2023/05/06 06:45:36;;;;;;;48.45;30.00;;;12.60;99.90;;;;;;5032224;28;20081;-56
2023/05/06 06:48:02;;;;;;;46.75;28.73;;;12.80;99.90;;;;;;5029923;28;20483;-55
2023/05/06 06:50:27;;;;;;;44.45;29.77;;;12.80;99.90;;;;;;5038872;28;20033;-55
2023/05/06 06:52:53;;;;;;;48.53;30.02;;;13.00;99.90;;;;;;5040013;28;20505;-55
2023/05/06 06:55:19;;;;;;;46.30;29.73;;;13.10;99.90;;;;;;5037010;28;20456;-56
2023/05/06 06:57:44;;;;;;;42.17;29.02;;;13.20;99.90;;;;;;5050615;28;20072;-55
2023/05/06 07:00:11;;;;;;;50.42;31.08;;;13.30;99.90;;;;;;5047857;28;20080;-53
2023/05/06 07:02:36;;;;;;;42.33;26.90;;;13.40;99.90;;;;;;5031872;28;20041;-52
2023/05/06 07:05:03;;;;;;;35.22;26.58;;;13.60;99.90;;;;;;5032901;28;20136;-52
2023/05/06 07:07:28;;;;;;;;;;;13.70;99.90;;;;;;5031408;28;20038;-54
2023/05/06 07:09:54;;;;;;;34.53;23.88;;;13.80;99.90;;;;;;5031756;28;19926;-56
2023/05/06 07:12:19;;;;;;;38.03;24.52;;;13.90;99.90;;;;;;5051748;28;20478;-55
2023/05/06 07:14:45;;;;;;;38.53;26.70;;;14.00;99.90;;;;;;5051737;28;20033;-56
2023/05/06 07:17:10;;;;;;;43.42;27.13;;;14.10;99.90;;;;;;5032451;28;20308;-54
2023/05/06 07:19:36;;;;;;;27.95;20.77;;;14.20;99.90;;;;;;5030386;28;20069;-52
2023/05/06 07:22:02;;;;;;;36.03;24.00;;;14.40;99.90;;;;;;5040356;28;20048;-55
2023/05/06 07:24:27;;;;;;;32.38;23.65;;;14.40;99.90;;;;;;5030444;28;20095;-56
2023/05/06 07:26:53;;;;;;;38.58;26.58;;;14.50;99.90;;;;;;5025823;28;20034;-57
2023/05/06 07:29:18;;;;;;;36.40;25.75;;;14.50;99.90;;;;;;5023442;28;20479;-56
2023/05/06 07:31:44;;;;;;;37.83;27.73;;;14.60;99.90;;;;;;5033092;28;20052;-55
2023/05/06 07:34:10;;;;;;;30.02;21.88;;;14.60;99.90;;;;;;5031953;28;20041;-57
2023/05/06 07:36:39;;;;;;;37.90;24.75;;;14.60;99.90;;;;;;5043199;28;20033;-56
2023/05/06 07:39:06;;;;;;;37.58;28.00;;;14.80;99.90;;;;;;5029447;28;20044;-57
2023/05/06 07:41:32;;;;;;;34.33;23.95;;;14.80;99.90;;;;;;5029248;28;20139;-54
2023/05/06 07:43:57;;;;;;;42.20;28.50;;;15.00;99.90;;;;;;5029997;28;20041;-51
2023/05/06 07:46:23;;;;;;;53.97;29.48;;;15.00;99.90;;;;;;5029202;28;20044;-54
2023/05/06 07:48:49;;;;;;;48.75;31.02;;;15.20;99.90;;;;;;5029803;28;20038;-55
2023/05/06 07:51:15;;;;;;;42.92;28.33;;;15.30;99.90;;;;;;5030508;28;20037;-53
2023/05/06 07:53:41;;;;;;;63.42;33.97;;;15.40;99.90;;;;;;5030044;28;20402;-52
2023/05/06 07:56:06;;;;;;;53.47;35.78;;;15.50;99.90;;;;;;5030600;28;20121;-54
2023/05/06 07:58:32;;;;;;;51.80;34.85;;;15.60;99.90;;;;;;5030039;28;20072;-55
2023/05/06 08:00:58;;;;;;;49.58;31.80;;;15.70;99.90;;;;;;5030204;28;20112;-53
2023/05/06 08:03:24;;;;;;;49.65;30.10;;;15.80;99.90;;;;;;5030182;28;20052;-54
2023/05/06 08:05:50;;;;;;;42.50;25.38;;;15.90;99.90;;;;;;5029960;28;20037;-54
2023/05/06 08:08:17;;;;;;;34.97;23.25;;;16.00;99.90;;;;;;5027649;28;20125;-56
2023/05/06 08:10:43;;;;;;;36.10;22.02;;;16.10;99.90;;;;;;5028431;28;20083;-55
2023/05/06 08:13:08;;;;;;;;;;;16.20;99.90;;;;;;5031289;28;20376;-52
2023/05/06 08:15:34;;;;;;;38.20;23.67;;;16.20;99.90;;;;;;5030511;28;19928;-56
2023/05/06 08:18:00;;;;;;;37.88;24.38;;;16.10;99.90;;;;;;5026187;28;20081;-55
2023/05/06 08:20:26;;;;;;;40.00;24.77;;;16.10;99.90;;;;;;5028342;28;20098;-52
2023/05/06 08:22:51;;;;;;;41.47;25.83;;;16.10;99.90;;;;;;5029324;28;20128;-55
2023/05/06 08:25:17;;;;;;;36.70;23.48;;;16.10;99.90;;;;;;5027642;28;20076;-54
2023/05/06 08:27:43;;;;;;;42.45;25.88;;;16.20;99.90;;;;;;5028432;28;20136;-55
2023/05/06 08:30:10;;;;;;;37.85;22.05;;;16.20;99.90;;;;;;5029428;28;20039;-52
2023/05/06 08:32:35;;;;;;;31.88;20.50;;;16.30;99.90;;;;;;5029821;28;20045;-56
2023/05/06 08:35:01;;;;;;;34.92;22.45;;;16.40;99.90;;;;;;5030246;28;20407;-55
2023/05/06 08:37:26;;;;;;;34.05;20.13;;;16.50;99.90;;;;;;5028485;28;20033;-54
2023/05/06 08:39:52;;;;;;;30.92;19.02;;;16.60;99.90;;;;;;5028707;28;20044;-52
2023/05/06 08:42:17;;;;;;;30.13;20.60;;;16.60;99.90;;;;;;5029483;28;20491;-55
2023/05/06 08:44:43;;;;;;;38.67;23.90;;;16.70;99.90;;;;;;5030407;28;20171;-56
2023/05/06 08:47:09;;;;;;;35.50;23.48;;;16.80;99.90;;;;;;5028642;28;20040;-56
2023/05/06 08:49:35;;;;;;;34.15;21.08;;;16.80;99.90;;;;;;5029050;28;20116;-54
2023/05/06 08:52:04;;;;;;;30.85;19.55;;;16.80;99.90;;;;;;5028804;28;20037;-54
2023/05/06 08:54:34;;;;;;;26.52;19.15;;;16.90;99.90;;;;;;5030046;28;20040;-55
2023/05/06 08:57:04;;;;;;;30.92;19.55;;;17.00;99.90;;;;;;5029964;28;20048;-54
2023/05/06 08:59:31;;;;;;;30.33;18.52;;;17.10;99.90;;;;;;5028932;28;20037;-55
2023/05/06 09:01:58;;;;;;;30.95;21.45;;;17.10;99.90;;;;;;5030223;28;20120;-54
2023/05/06 09:04:24;;;;;;;25.45;17.50;;;17.10;99.90;;;;;;5029522;28;20417;-54
2023/05/06 09:06:50;;;;;;;29.67;18.58;;;17.20;99.90;;;;;;5030022;28;20138;-56
2023/05/06 09:09:17;;;;;;;28.73;20.08;;;17.30;99.90;;;;;;5028923;28;20490;-54
2023/05/06 09:11:42;;;;;;;26.15;18.42;;;17.30;99.90;;;;;;5029992;28;20116;-53
2023/05/06 09:14:14;;;;;;;22.85;15.75;;;17.40;99.90;;;;;;5028486;28;20049;-56
2023/05/06 09:16:45;;;;;;;25.88;16.70;;;17.50;99.90;;;;;;5030968;28;20065;-51
2023/05/06 09:19:12;;;;;;;19.75;13.82;;;17.60;99.90;;;;;;5041048;28;20441;-56
2023/05/06 09:21:42;;;;;;;18.02;13.05;;;17.70;99.90;;;;;;5037282;28;20043;-53
2023/05/06 09:24:10;;;;;;;19.38;13.70;;;17.70;99.90;;;;;;5029070;28;20463;-55
2023/05/06 09:26:37;;;;;;;18.42;13.75;;;17.80;99.90;;;;;;5028343;28;20037;-56
2023/05/06 09:29:05;;;;;;;20.13;15.10;;;17.80;99.90;;;;;;5027187;28;20055;-55
2023/05/06 09:31:31;;;;;;;15.65;12.80;;;17.80;99.90;;;;;;5029102;28;20091;-55
2023/05/06 09:33:58;;;;;;;16.30;13.60;;;17.90;99.90;;;;;;5029882;28;20044;-55
2023/05/06 09:36:26;;;;;;;18.98;12.48;;;18.00;99.90;;;;;;5029436;28;20095;-54
2023/05/06 09:38:55;;;;;;;15.25;12.32;;;18.00;99.90;;;;;;5028605;28;20042;-56
2023/05/06 09:41:24;;;;;;;12.00;9.52;;;18.10;99.90;;;;;;5028985;28;20384;-55
2023/05/06 09:43:51;;;;;;;12.70;10.40;;;18.20;99.90;;;;;;5029337;28;20053;-56
2023/05/06 09:46:17;;;;;;;12.15;9.77;;;18.30;99.90;;;;;;5027595;28;20107;-54
2023/05/06 09:48:45;;;;;;;12.55;9.80;;;18.40;99.90;;;;;;5028886;28;20030;-55
2023/05/06 09:51:11;;;;;;;10.80;9.10;;;18.50;99.90;;;;;;5028970;28;20045;-54
2023/05/06 09:53:37;;;;;;;;;;;18.50;99.90;;;;;;5029775;28;20790;-56
2023/05/06 09:56:07;;;;;;;9.82;8.23;;;18.50;99.90;;;;;;5029197;28;19974;-56
2023/05/06 09:58:37;;;;;;;10.95;8.18;;;18.50;99.90;;;;;;5029591;28;20041;-52
2023/05/06 10:01:04;;;;;;;10.00;8.18;;;18.30;99.90;;;;;;5032979;28;20045;-55
2023/05/06 10:03:31;;;;;;;11.48;7.97;;;18.30;99.90;;;;;;5032310;28;20065;-55
2023/05/06 10:05:59;;;;;;;12.75;8.30;;;18.20;99.90;;;;;;5032635;28;20037;-55
2023/05/06 10:08:25;;;;;;;10.60;8.48;;;18.20;99.90;;;;;;5030502;28;20045;-53
2023/05/06 10:10:52;;;;;;;13.40;9.00;;;18.10;99.90;;;;;;5032531;28;20698;-54
2023/05/06 10:13:20;;;;;;;;;;;18.00;99.90;;;;;;5032211;28;20052;-56
2023/05/06 10:15:48;;;;;;;12.95;9.57;;;18.00;99.90;;;;;;5032767;28;20298;-54
2023/05/06 10:18:19;;;;;;;14.88;10.75;;;18.00;99.90;;;;;;5031185;28;20068;-55
2023/05/06 10:20:46;;;;;;;13.13;10.48;;;18.10;99.90;;;;;;5031629;28;20041;-52
2023/05/06 10:23:37;;;;;;;14.40;11.73;;;18.00;99.90;;;;;;5031986;28;20084;-56
2023/05/06 10:26:09;;;;;;;13.95;10.70;;;18.00;99.90;;;;;;5031418;28;20767;-54
2023/05/06 10:28:42;;;;;;;16.90;11.75;;;18.10;99.90;;;;;;5030391;28;20215;-55
2023/05/06 10:31:12;;;;;;;18.38;13.38;;;18.10;99.90;;;;;;5031870;28;20033;-56
2023/05/06 10:33:46;;;;;;;15.63;12.43;;;18.20;99.90;;;;;;5028551;28;20433;-53
2023/05/06 10:36:24;;;;;;;15.07;12.77;;;18.40;99.90;;;;;;5031369;28;20045;-55
2023/05/06 10:38:55;;;;;;;17.63;13.93;;;18.60;99.90;;;;;;5031432;28;20498;-56
2023/05/06 10:41:22;;;;;;;16.65;13.25;;;18.70;99.90;;;;;;5031229;28;20081;-55
2023/05/06 10:43:55;;;;;;;19.15;15.30;;;18.90;99.90;;;;;;5032141;28;20402;-56
2023/05/06 10:46:28;;;;;;;21.00;15.23;;;18.90;99.90;;;;;;5030448;28;20376;-54
2023/05/06 10:49:05;;;;;;;16.40;13.85;;;19.00;99.90;;;;;;5031209;28;20299;-55
2023/05/06 10:51:34;;;;;;;19.05;15.05;;;19.00;99.90;;;;;;5027877;28;20044;-56
2023/05/06 10:54:07;;;;;;;18.23;14.90;;;19.00;99.90;;;;;;5023709;28;20041;-54
2023/05/06 10:57:01;;;;;;;23.05;15.90;;;19.00;99.90;;;;;;5031644;28;20091;-56
2023/05/06 10:59:30;;;;;;;16.02;14.30;;;19.00;99.90;;;;;;5010721;28;20595;-55
2023/05/06 11:02:01;;;;;;;17.75;13.82;;;18.90;99.90;;;;;;5012606;28;20037;-56
2023/05/06 11:04:29;;;;;;;15.60;13.85;;;18.90;99.90;;;;;;5022597;28;20041;-56
2023/05/06 11:07:10;;;;;;;18.27;14.75;;;18.90;99.90;;;;;;5031329;28;20045;-56
2023/05/06 11:09:56;;;;;;;16.40;14.48;;;18.90;99.90;;;;;;5029989;28;20390;-55
2023/05/06 11:12:42;;;;;;;19.17;13.93;;;18.80;99.90;;;;;;5031801;28;20353;-56
2023/05/06 11:15:39;;;;;;;17.67;15.00;;;18.70;99.90;;;;;;5031823;28;20057;-57
2023/05/06 11:18:23;;;;;;;18.60;14.38;;;18.70;99.90;;;;;;5030305;28;20045;-54
2023/05/06 11:21:01;;;;;;;15.55;12.05;;;18.60;99.90;;;;;;5024494;28;20073;-56
2023/05/06 11:23:48;;;;;;;18.08;15.40;;;18.60;99.90;;;;;;5029677;28;20037;-55
2023/05/06 11:26:14;;;;;;;15.60;13.88;;;18.50;99.90;;;;;;5022968;28;20064;-57
2023/05/06 11:28:48;;;;;;;18.45;14.27;;;18.50;99.90;;;;;;5040428;28;20041;-54
2023/05/06 11:31:15;;;;;;;14.85;13.32;;;18.50;99.90;;;;;;5051081;28;20041;-54
2023/05/06 11:33:48;;;;;;;17.00;15.15;;;18.60;99.90;;;;;;5039010;28;20090;-56
2023/05/06 11:36:15;;;;;;;14.95;13.45;;;18.60;99.90;;;;;;5030785;28;20033;-56
2023/05/06 11:38:48;;;;;;;17.48;14.38;;;18.60;99.90;;;;;;5031188;28;20483;-54
2023/05/06 11:41:15;;;;;;;14.63;13.07;;;18.60;99.90;;;;;;5030732;28;20576;-55
2023/05/06 11:43:48;;;;;;;19.52;15.38;;;18.60;99.90;;;;;;5039897;28;20124;-56
2023/05/06 11:46:14;;;;;;;18.83;14.82;;;18.70;99.90;;;;;;5049301;28;20053;-56
2023/05/06 11:48:42;;;;;;;17.77;15.00;;;18.70;99.90;;;;;;5030544;28;20037;-56
2023/05/06 11:51:07;;;;;;;18.95;13.73;;;18.70;99.90;;;;;;5029812;28;20048;-56
2023/05/06 11:53:33;;;;;;;19.90;13.32;;;18.70;99.90;;;;;;5030697;28;20037;-54
2023/05/06 11:55:59;;;;;;;16.67;12.48;;;18.70;99.90;;;;;;5030966;28;20045;-56
2023/05/06 11:58:27;;;;;;;14.52;12.73;;;18.80;99.90;;;;;;5030149;28;20046;-52
2023/05/06 12:00:58;;;;;;;12.65;11.40;;;18.80;99.90;;;;;;5043451;28;20107;-56
2023/05/06 12:03:26;;;;;;;15.52;12.88;;;18.80;99.90;;;;;;5035894;28;20462;-56
2023/05/06 12:05:51;;;;;;;15.65;14.15;;;18.80;99.90;;;;;;5031153;28;20042;-56
2023/05/06 12:08:23;;;;;;;15.98;13.48;;;18.90;99.90;;;;;;5032042;28;20108;-54
2023/05/06 12:10:53;;;;;;;14.27;12.80;;;18.90;99.90;;;;;;5032509;28;20048;-55
2023/05/06 12:13:19;;;;;;;14.68;13.18;;;19.00;99.90;;;;;;5037756;28;20037;-55
2023/05/06 12:15:46;;;;;;;13.55;12.25;;;18.90;99.90;;;;;;5029898;28;20124;-51
2023/05/06 12:18:12;;;;;;;16.70;13.88;;;18.80;99.90;;;;;;5017971;28;20046;-55
2023/05/06 12:20:38;;;;;;;13.45;12.15;;;18.80;99.90;;;;;;5046273;28;20060;-54
2023/05/06 12:23:11;;;;;;;15.05;13.48;;;18.70;99.90;;;;;;5049833;28;20118;-52
2023/05/06 12:25:38;;;;;;;13.55;12.23;;;18.50;99.90;;;;;;5049115;28;20049;-54
2023/05/06 12:28:14;;;;;;;14.07;12.65;;;18.50;99.90;;;;;;5048555;28;20048;-56
2023/05/06 12:30:40;;;;;;;14.10;12.65;;;18.40;99.90;;;;;;5046972;28;20048;-52
2023/05/06 12:33:06;;;;;;;13.43;11.95;;;18.40;99.90;;;;;;5050409;28;20041;-53
2023/05/06 12:35:32;;;;;;;17.73;13.88;;;18.40;99.90;;;;;;5030259;28;20514;-53
2023/05/06 12:38:08;;;;;;;14.90;13.60;;;18.40;99.90;;;;;;5022883;28;20045;-54